createdAt,value
2017-10-14T00:00:27.793Z,30.4
2017-10-14T00:01:27.868Z,30.4
2017-10-14T00:02:27.909Z,30.4
2017-10-14T00:03:27.771Z,30.4
2017-10-14T00:04:28.039Z,30.4
2017-10-14T00:05:27.886Z,30.4
2017-10-14T00:06:28.546Z,30.4
2017-10-14T00:07:27.900Z,30.4
2017-10-14T00:08:28.263Z,30.4
2017-10-14T00:09:28.134Z,30.4
2017-10-14T00:10:28.219Z,30.4
2017-10-14T00:11:28.470Z,30.4
2017-10-14T00:12:28.683Z,30.4
2017-10-14T00:13:28.461Z,30.4
2017-10-14T00:14:28.702Z,30.4
2017-10-14T00:15:28.864Z,30.4
2017-10-14T00:16:28.887Z,30.4
2017-10-14T00:17:28.814Z,30.4
2017-10-14T00:18:29.076Z,30.4
2017-10-14T00:19:29.062Z,30.4
2017-10-14T00:20:28.869Z,30.4
2017-10-14T00:21:28.967Z,30.4
2017-10-14T00:22:29.118Z,30.4
2017-10-14T00:23:29.091Z,30.4
2017-10-14T00:24:29.644Z,30.4
2017-10-14T00:25:29.164Z,30.4
2017-10-14T00:26:29.214Z,30.3
2017-10-14T00:27:29.386Z,30.4
2017-10-14T00:28:29.293Z,30.3
2017-10-14T00:29:29.388Z,30.4
2017-10-14T00:30:29.846Z,30.4
2017-10-14T00:31:29.612Z,30.4
2017-10-14T00:32:29.455Z,30.4
2017-10-14T00:33:29.724Z,30.4
2017-10-14T00:34:29.499Z,30.4
2017-10-14T00:35:29.791Z,30.4
2017-10-14T00:36:30.095Z,30.4
2017-10-14T00:37:30.004Z,30.4
2017-10-14T00:38:29.716Z,30.4
2017-10-14T00:39:29.928Z,30.4
2017-10-14T00:40:29.952Z,30.4
2017-10-14T00:41:29.775Z,30.4
2017-10-14T00:42:30.182Z,30.4
2017-10-14T00:43:29.936Z,30.4
2017-10-14T00:44:29.925Z,30.4
2017-10-14T00:45:30.268Z,30.4
2017-10-14T00:46:30.210Z,30.4
2017-10-14T00:47:30.079Z,30.4
2017-10-14T00:48:30.469Z,30.4
2017-10-14T00:49:30.447Z,30.4
2017-10-14T00:50:30.267Z,30.4
2017-10-14T00:51:35.663Z,30.4
2017-10-14T00:52:30.593Z,30.4
2017-10-14T00:53:30.448Z,30.4
2017-10-14T00:54:31.066Z,30.4
2017-10-14T00:55:30.674Z,30.4
2017-10-14T00:56:30.612Z,30.3
2017-10-14T00:57:30.861Z,30.4
2017-10-14T00:58:30.725Z,30.3
2017-10-14T00:59:30.893Z,30.4
2017-10-14T01:00:32.923Z,30.4
2017-10-14T01:01:31.017Z,30.4
2017-10-14T01:02:30.897Z,30.4
2017-10-14T01:03:30.929Z,30.4
2017-10-14T01:04:31.227Z,30.4
2017-10-14T01:05:31.064Z,30.4
2017-10-14T01:06:31.396Z,30.4
2017-10-14T01:07:31.153Z,30.4
2017-10-14T01:08:31.455Z,30.4
2017-10-14T01:09:31.506Z,30.4
2017-10-14T01:10:31.466Z,30.4
2017-10-14T01:11:31.396Z,30.4
2017-10-14T01:12:32.032Z,30.4
2017-10-14T01:13:31.565Z,30.4
2017-10-14T01:14:31.725Z,30.4
2017-10-14T01:15:31.630Z,30.4
2017-10-14T01:16:31.860Z,30.4
2017-10-14T01:17:31.900Z,30.3
2017-10-14T01:18:32.391Z,30.4
2017-10-14T01:19:31.781Z,30.3
2017-10-14T01:20:31.944Z,30.4
2017-10-14T01:21:31.960Z,30.4
2017-10-14T01:22:32.020Z,30.4
2017-10-14T01:23:32.059Z,30.4
2017-10-14T01:24:32.283Z,30.4
2017-10-14T01:25:32.328Z,30.3
2017-10-14T01:26:32.085Z,30.4
2017-10-14T01:27:32.458Z,30.4
2017-10-14T01:28:32.270Z,30.4
2017-10-14T01:29:32.315Z,30.4
2017-10-14T01:30:32.650Z,30.4
2017-10-14T01:31:32.430Z,30.4
2017-10-14T01:32:32.382Z,30.3
2017-10-14T01:33:32.382Z,30.4
2017-10-14T01:34:32.731Z,30.4
2017-10-14T01:35:32.714Z,30.4
2017-10-14T01:36:32.957Z,30.4
2017-10-14T01:37:32.856Z,30.3
2017-10-14T01:38:32.706Z,30.4
2017-10-14T01:39:32.968Z,30.4
2017-10-14T01:40:33.053Z,30.4
2017-10-14T01:41:32.801Z,30.4
2017-10-14T01:42:33.415Z,30.4
2017-10-14T01:43:33.157Z,30.4
2017-10-14T01:44:33.221Z,30.4
2017-10-14T01:45:33.217Z,30.4
2017-10-14T01:46:33.218Z,30.4
2017-10-14T01:47:33.188Z,30.4
2017-10-14T01:48:33.368Z,30.4
2017-10-14T01:49:33.355Z,30.4
2017-10-14T01:50:33.287Z,30.4
2017-10-14T01:51:33.248Z,30.4
2017-10-14T01:52:33.602Z,30.4
2017-10-14T01:53:33.385Z,30.4
2017-10-14T01:54:33.726Z,30.4
2017-10-14T01:55:33.706Z,30.4
2017-10-14T01:56:33.622Z,30.4
2017-10-14T01:57:33.848Z,30.4
2017-10-14T01:58:33.805Z,30.4
2017-10-14T01:59:33.772Z,30.4
2017-10-14T02:00:34.025Z,30.4
2017-10-14T02:01:33.884Z,30.4
2017-10-14T02:02:33.971Z,30.4
2017-10-14T02:03:34.196Z,30.4
2017-10-14T02:04:34.145Z,30.3
2017-10-14T02:05:34.359Z,30.4
2017-10-14T02:06:34.587Z,30.4
2017-10-14T02:07:34.200Z,30.4
2017-10-14T02:08:34.209Z,30.4
2017-10-14T02:09:34.199Z,30.4
2017-10-14T02:10:34.258Z,30.4
2017-10-14T02:11:34.482Z,30.3
2017-10-14T02:12:34.659Z,30.3
2017-10-14T02:13:34.611Z,30.3
2017-10-14T02:14:34.720Z,30.4
2017-10-14T02:15:34.760Z,30.4
2017-10-14T02:16:34.841Z,30.4
2017-10-14T02:17:34.909Z,30.4
2017-10-14T02:18:35.268Z,30.4
2017-10-14T02:19:34.937Z,30.4
2017-10-14T02:20:34.973Z,30.4
2017-10-14T02:21:35.055Z,30.4
2017-10-14T02:22:34.880Z,30.4
2017-10-14T02:23:34.941Z,30.4
2017-10-14T02:24:35.456Z,30.4
2017-10-14T02:25:35.185Z,30.4
2017-10-14T02:26:35.250Z,30.4
2017-10-14T02:27:35.288Z,30.4
2017-10-14T02:28:35.125Z,30.4
2017-10-14T02:29:35.197Z,30.4
2017-10-14T02:30:35.540Z,30.4
2017-10-14T02:31:35.238Z,30.4
2017-10-14T02:32:35.438Z,30.4
2017-10-14T02:33:35.596Z,30.3
2017-10-14T02:34:35.589Z,30.4
2017-10-14T02:35:35.706Z,30.3
2017-10-14T02:36:35.782Z,30.4
2017-10-14T02:37:35.739Z,30.3
2017-10-14T02:38:35.530Z,30.4
2017-10-14T02:39:35.738Z,30.3
2017-10-14T02:40:35.743Z,30.3
2017-10-14T02:41:35.626Z,30.3
2017-10-14T02:42:36.146Z,30.4
2017-10-14T02:43:35.953Z,30.3
2017-10-14T02:44:35.848Z,30.4
2017-10-14T02:45:36.119Z,30.4
2017-10-14T02:46:36.199Z,30.4
2017-10-14T02:47:36.015Z,30.4
2017-10-14T02:48:36.499Z,30.4
2017-10-14T02:49:36.129Z,30.4
2017-10-14T02:50:36.254Z,30.3
2017-10-14T02:51:36.399Z,30.4
2017-10-14T02:52:36.287Z,30.4
2017-10-14T02:53:36.273Z,30.4
2017-10-14T02:54:36.804Z,30.4
2017-10-14T02:55:36.561Z,30.4
2017-10-14T02:56:36.665Z,30.4
2017-10-14T02:57:36.669Z,30.4
2017-10-14T02:58:36.715Z,30.4
2017-10-14T02:59:36.558Z,30.4
2017-10-14T03:00:36.869Z,30.4
2017-10-14T03:01:36.877Z,30.4
2017-10-14T03:02:36.944Z,30.4
2017-10-14T03:03:36.787Z,30.4
2017-10-14T03:04:36.859Z,30.3
2017-10-14T03:05:36.914Z,30.4
2017-10-14T03:06:36.933Z,30.4
2017-10-14T03:07:36.985Z,30.4
2017-10-14T03:08:37.242Z,30.4
2017-10-14T03:09:37.439Z,30.3
2017-10-14T03:10:37.441Z,30.4
2017-10-14T03:11:37.365Z,30.3
2017-10-14T03:12:37.626Z,30.3
2017-10-14T03:13:37.740Z,30.3
2017-10-14T03:14:37.682Z,30.3
2017-10-14T03:15:37.600Z,30.3
2017-10-14T03:16:37.679Z,30.3
2017-10-14T03:17:37.991Z,30.3
2017-10-14T03:18:38.018Z,30.3
2017-10-14T03:19:38.072Z,30.4
2017-10-14T03:20:37.925Z,30.3
2017-10-14T03:21:38.014Z,30.3
2017-10-14T03:22:38.321Z,30.4
2017-10-14T03:23:38.330Z,30.4
2017-10-14T03:24:38.140Z,30.3
2017-10-14T03:25:38.361Z,30.3
2017-10-14T03:26:38.183Z,30.4
2017-10-14T03:27:38.265Z,30.4
2017-10-14T03:28:38.507Z,30.3
2017-10-14T03:29:38.545Z,30.3
2017-10-14T03:30:38.397Z,30.4
2017-10-14T03:31:38.634Z,30.4
2017-10-14T03:32:38.630Z,30.4
2017-10-14T03:33:38.476Z,30.3
2017-10-14T03:34:38.552Z,30.3
2017-10-14T03:35:38.759Z,30.3
2017-10-14T03:36:38.802Z,30.3
2017-10-14T03:37:38.779Z,30.3
2017-10-14T03:38:38.871Z,30.3
2017-10-14T03:39:38.868Z,30.4
2017-10-14T03:40:38.993Z,30.4
2017-10-14T03:41:38.845Z,30.3
2017-10-14T03:42:38.918Z,30.4
2017-10-14T03:43:38.993Z,30.3
2017-10-14T03:44:39.257Z,30.3
2017-10-14T03:45:39.354Z,30.3
2017-10-14T03:46:39.393Z,30.3
2017-10-14T03:47:39.269Z,30.3
2017-10-14T03:48:39.576Z,30.3
2017-10-14T03:49:39.576Z,30.3
2017-10-14T03:50:39.694Z,30.4
2017-10-14T03:51:39.519Z,30.3
2017-10-14T03:52:39.768Z,30.3
2017-10-14T03:53:39.802Z,30.3
2017-10-14T03:54:39.921Z,30.3
2017-10-14T03:55:39.768Z,30.3
2017-10-14T03:56:40.002Z,30.3
2017-10-14T03:57:40.046Z,30.3
2017-10-14T03:58:39.881Z,30.3
2017-10-14T03:59:39.941Z,30.3
2017-10-14T04:00:40.166Z,30.3
2017-10-14T04:01:40.235Z,30.3
2017-10-14T04:02:40.105Z,30.3
2017-10-14T04:03:40.426Z,30.3
2017-10-14T04:04:40.263Z,30.3
2017-10-14T04:05:40.439Z,30.3
2017-10-14T04:06:40.300Z,30.4
2017-10-14T04:07:40.604Z,30.3
2017-10-14T04:08:40.501Z,30.3
2017-10-14T04:09:40.556Z,30.4
2017-10-14T04:10:40.560Z,30.4
2017-10-14T04:11:40.815Z,30.4
2017-10-14T04:12:40.700Z,30.3
2017-10-14T04:13:40.996Z,30.3
2017-10-14T04:14:41.036Z,30.3
2017-10-14T04:15:41.081Z,30.3
2017-10-14T04:16:40.932Z,30.3
2017-10-14T04:17:40.962Z,30.3
2017-10-14T04:18:41.269Z,30.3
2017-10-14T04:19:41.291Z,30.3
2017-10-14T04:20:41.424Z,30.3
2017-10-14T04:21:41.464Z,30.3
2017-10-14T04:22:41.513Z,30.3
2017-10-14T04:23:41.572Z,30.3
2017-10-14T04:24:41.387Z,30.3
2017-10-14T04:25:41.675Z,30.3
2017-10-14T04:26:41.480Z,30.3
2017-10-14T04:27:41.564Z,30.3
2017-10-14T04:28:41.667Z,30.3
2017-10-14T04:29:41.957Z,30.3
2017-10-14T04:30:41.766Z,30.3
2017-10-14T04:31:41.968Z,30.3
2017-10-14T04:32:42.064Z,30.4
2017-10-14T04:33:42.220Z,30.4
2017-10-14T04:34:42.084Z,30.4
2017-10-14T04:35:42.375Z,30.4
2017-10-14T04:36:42.290Z,30.3
2017-10-14T04:37:42.250Z,30.3
2017-10-14T04:38:42.445Z,30.3
2017-10-14T04:39:42.532Z,30.4
2017-10-14T04:40:42.435Z,30.3
2017-10-14T04:41:42.621Z,30.3
2017-10-14T04:42:42.685Z,30.3
2017-10-14T04:43:42.792Z,30.3
2017-10-14T04:44:42.625Z,30.3
2017-10-14T04:45:42.681Z,30.3
2017-10-14T04:46:42.933Z,30.3
2017-10-14T04:47:42.830Z,30.3
2017-10-14T04:48:42.803Z,30.3
2017-10-14T04:49:42.805Z,30.3
2017-10-14T04:50:42.961Z,30.3
2017-10-14T04:51:42.927Z,30.4
2017-10-14T04:52:42.956Z,30.4
2017-10-14T04:53:43.260Z,30.4
2017-10-14T04:54:43.315Z,30.4
2017-10-14T04:55:43.133Z,30.4
2017-10-14T04:56:43.189Z,30.4
2017-10-14T04:57:43.474Z,30.4
2017-10-14T04:58:43.324Z,30.4
2017-10-14T04:59:43.534Z,30.4
2017-10-14T05:00:43.606Z,30.4
2017-10-14T05:01:43.467Z,30.3
2017-10-14T05:02:43.687Z,30.3
2017-10-14T05:03:43.565Z,30.3
2017-10-14T05:04:43.751Z,30.3
2017-10-14T05:05:43.786Z,30.3
2017-10-14T05:06:43.949Z,30.3
2017-10-14T05:07:43.932Z,30.3
2017-10-14T05:08:44.001Z,30.3
2017-10-14T05:09:43.837Z,30.3
2017-10-14T05:10:43.897Z,30.3
2017-10-14T05:11:43.937Z,30.3
2017-10-14T05:12:44.083Z,30.3
2017-10-14T05:13:44.072Z,30.3
2017-10-14T05:14:44.170Z,30.3
2017-10-14T05:15:44.383Z,30.3
2017-10-14T05:16:44.258Z,30.3
2017-10-14T05:17:44.584Z,30.3
2017-10-14T05:18:44.624Z,30.3
2017-10-14T05:19:44.439Z,30.3
2017-10-14T05:20:44.721Z,30.3
2017-10-14T05:21:44.629Z,30.3
2017-10-14T05:22:44.851Z,30.3
2017-10-14T05:23:44.900Z,30.3
2017-10-14T05:24:44.909Z,30.3
2017-10-14T05:25:45.002Z,30.3
2017-10-14T05:26:44.857Z,30.3
2017-10-14T05:27:45.134Z,30.3
2017-10-14T05:28:44.992Z,30.3
2017-10-14T05:29:45.220Z,30.3
2017-10-14T05:30:45.238Z,30.3
2017-10-14T05:31:45.282Z,30.3
2017-10-14T05:32:45.137Z,30.3
2017-10-14T05:33:45.184Z,30.3
2017-10-14T05:34:45.261Z,30.3
2017-10-14T05:35:45.484Z,30.3
2017-10-14T05:36:45.438Z,30.3
2017-10-14T05:37:45.346Z,30.3
2017-10-14T05:38:45.465Z,30.3
2017-10-14T05:39:45.548Z,30.3
2017-10-14T05:40:45.847Z,30.3
2017-10-14T05:41:45.871Z,30.4
2017-10-14T05:42:45.960Z,30.4
2017-10-14T05:43:45.984Z,30.4
2017-10-14T05:44:45.899Z,30.4
2017-10-14T05:45:46.167Z,30.4
2017-10-14T05:46:46.053Z,30.4
2017-10-14T05:47:46.163Z,30.4
2017-10-14T05:48:46.155Z,30.3
2017-10-14T05:49:46.212Z,30.3
2017-10-14T05:50:46.251Z,30.3
2017-10-14T05:51:46.448Z,30.3
2017-10-14T05:52:46.364Z,30.3
2017-10-14T05:53:46.587Z,30.3
2017-10-14T05:54:46.396Z,30.3
2017-10-14T05:55:46.647Z,30.3
2017-10-14T05:56:46.512Z,30.3
2017-10-14T05:57:46.745Z,30.4
2017-10-14T05:58:46.679Z,30.3
2017-10-14T05:59:46.883Z,30.4
2017-10-14T06:00:46.668Z,30.4
2017-10-14T06:01:46.926Z,30.4
2017-10-14T06:02:46.751Z,30.4
2017-10-14T06:03:46.980Z,30.4
2017-10-14T06:04:46.990Z,30.4
2017-10-14T06:05:46.976Z,30.4
2017-10-14T06:06:46.856Z,30.4
2017-10-14T06:07:47.075Z,30.4
2017-10-14T06:08:46.896Z,30.4
2017-10-14T06:09:47.173Z,30.4
2017-10-14T06:10:47.026Z,30.4
2017-10-14T06:11:47.080Z,30.4
2017-10-14T06:12:47.231Z,30.4
2017-10-14T06:13:47.366Z,30.4
2017-10-14T06:14:47.250Z,30.5
2017-10-14T06:15:47.294Z,30.5
2017-10-14T06:16:47.374Z,30.5
2017-10-14T06:17:47.433Z,30.6
2017-10-14T06:18:47.609Z,30.6
2017-10-14T06:19:47.465Z,30.6
2017-10-14T06:20:47.515Z,30.7
2017-10-14T06:21:47.803Z,30.7
2017-10-14T06:22:47.891Z,30.8
2017-10-14T06:23:47.731Z,30.8
2017-10-14T06:24:48.044Z,30.8
2017-10-14T06:25:47.870Z,30.8
2017-10-14T06:26:48.132Z,30.9
2017-10-14T06:27:48.207Z,30.9
2017-10-14T06:28:48.314Z,31
2017-10-14T06:29:48.152Z,31
2017-10-14T06:30:48.249Z,31.1
2017-10-14T06:31:48.325Z,31.1
2017-10-14T06:32:48.587Z,31.1
2017-10-14T06:33:48.434Z,31.1
2017-10-14T06:34:48.715Z,31.2
2017-10-14T06:35:48.821Z,31.2
2017-10-14T06:36:48.934Z,31.3
2017-10-14T06:37:48.716Z,31.3
2017-10-14T06:38:48.982Z,31.3
2017-10-14T06:39:49.042Z,31.3
2017-10-14T06:40:49.100Z,31.4
2017-10-14T06:41:49.087Z,31.4
2017-10-14T06:42:49.267Z,31.4
2017-10-14T06:43:49.043Z,31.5
2017-10-14T06:44:49.118Z,31.5
2017-10-14T06:45:49.183Z,31.5
2017-10-14T06:46:49.502Z,31.5
2017-10-14T06:47:49.476Z,31.6
2017-10-14T06:48:49.754Z,31.6
2017-10-14T06:49:49.293Z,31.6
2017-10-14T06:50:49.342Z,31.7
2017-10-14T06:51:49.559Z,31.7
2017-10-14T06:52:49.436Z,31.7
2017-10-14T06:53:49.705Z,31.8
2017-10-14T06:54:50.006Z,31.8
2017-10-14T06:55:49.804Z,31.8
2017-10-14T06:56:49.830Z,31.8
2017-10-14T06:57:49.656Z,31.9
2017-10-14T06:58:49.944Z,31.9
2017-10-14T06:59:49.770Z,32
2017-10-14T07:00:50.337Z,32
2017-10-14T07:01:50.083Z,32
2017-10-14T07:02:50.124Z,32
2017-10-14T07:03:50.001Z,32.1
2017-10-14T07:04:50.209Z,32.1
2017-10-14T07:05:50.300Z,32.1
2017-10-14T07:06:50.519Z,32.2
2017-10-14T07:07:50.096Z,32.2
2017-10-14T07:08:50.367Z,32.2
2017-10-14T07:09:50.476Z,32.3
2017-10-14T07:10:50.499Z,32.3
2017-10-14T07:11:50.357Z,32.3
2017-10-14T07:12:50.748Z,32.4
2017-10-14T07:13:50.689Z,32.5
2017-10-14T07:14:50.745Z,32.6
2017-10-14T07:15:50.835Z,32.6
2017-10-14T07:16:50.866Z,32.7
2017-10-14T07:17:50.978Z,32.7
2017-10-14T07:18:51.053Z,32.8
2017-10-14T07:19:51.111Z,32.8
2017-10-14T07:20:51.081Z,32.8
2017-10-14T07:21:50.999Z,32.8
2017-10-14T07:22:50.966Z,32.9
2017-10-14T07:23:51.016Z,32.9
2017-10-14T07:24:51.602Z,33
2017-10-14T07:25:51.362Z,33.1
2017-10-14T07:26:51.418Z,33.2
2017-10-14T07:27:51.461Z,33.3
2017-10-14T07:28:51.331Z,33.4
2017-10-14T07:29:51.575Z,33.5
2017-10-14T07:30:51.962Z,33.6
2017-10-14T07:31:51.466Z,33.6
2017-10-14T07:32:51.731Z,33.7
2017-10-14T07:33:51.760Z,33.7
2017-10-14T07:34:51.760Z,33.9
2017-10-14T07:35:51.635Z,34
2017-10-14T07:36:51.945Z,34.1
2017-10-14T07:37:51.722Z,34.2
2017-10-14T07:38:52.023Z,34.3
2017-10-14T07:39:51.855Z,34.4
2017-10-14T07:40:52.056Z,34.5
2017-10-14T07:41:52.054Z,34.5
2017-10-14T07:42:52.416Z,34.6
2017-10-14T07:43:51.980Z,34.7
2017-10-14T07:44:51.925Z,34.7
2017-10-14T07:45:52.221Z,34.8
2017-10-14T07:46:52.057Z,34.8
2017-10-14T07:47:52.331Z,34.9
2017-10-14T07:48:52.591Z,34.9
2017-10-14T07:49:52.150Z,34.9
2017-10-14T07:50:52.221Z,35
2017-10-14T07:51:52.461Z,35
2017-10-14T07:52:52.284Z,35
2017-10-14T07:53:52.538Z,35
2017-10-14T07:54:52.696Z,35
2017-10-14T07:55:52.734Z,35
2017-10-14T07:56:52.560Z,35
2017-10-14T07:57:52.790Z,35
2017-10-14T07:58:52.861Z,35
2017-10-14T07:59:52.932Z,34.9
2017-10-14T08:00:53.277Z,34.9
2017-10-14T08:01:52.768Z,34.9
2017-10-14T08:02:53.005Z,34.9
2017-10-14T08:03:53.090Z,34.9
2017-10-14T08:04:53.164Z,34.9
2017-10-14T08:05:52.977Z,34.9
2017-10-14T08:06:53.320Z,34.9
2017-10-14T08:07:53.098Z,34.9
2017-10-14T08:08:53.100Z,34.9
2017-10-14T08:09:53.344Z,34.9
2017-10-14T08:10:53.219Z,35
2017-10-14T08:11:53.505Z,35
2017-10-14T08:12:53.799Z,35
2017-10-14T08:13:53.575Z,35
2017-10-14T08:14:53.592Z,34.9
2017-10-14T08:15:53.418Z,34.7
2017-10-14T08:16:53.532Z,34.6
2017-10-14T08:17:53.560Z,34.4
2017-10-14T08:18:54.118Z,34.3
2017-10-14T08:19:53.598Z,34.1
2017-10-14T08:20:53.684Z,34
2017-10-14T08:21:53.764Z,33.8
2017-10-14T08:22:53.941Z,33.7
2017-10-14T08:23:53.789Z,33.6
2017-10-14T08:24:54.019Z,33.5
2017-10-14T08:25:53.828Z,33.4
2017-10-14T08:26:53.910Z,33.3
2017-10-14T08:27:54.181Z,33.2
2017-10-14T08:28:54.239Z,33.2
2017-10-14T08:29:54.266Z,33.1
2017-10-14T08:30:54.380Z,33
2017-10-14T08:31:54.193Z,33
2017-10-14T08:32:54.407Z,32.9
2017-10-14T08:33:54.371Z,32.9
2017-10-14T08:34:54.567Z,32.8
2017-10-14T08:35:54.639Z,32.8
2017-10-14T08:36:54.733Z,32.8
2017-10-14T08:37:54.738Z,32.8
2017-10-14T08:38:54.532Z,32.7
2017-10-14T08:39:54.817Z,32.7
2017-10-14T08:40:54.692Z,32.7
2017-10-14T08:41:54.968Z,32.6
2017-10-14T08:42:55.251Z,32.6
2017-10-14T08:43:54.827Z,32.6
2017-10-14T08:44:54.984Z,32.6
2017-10-14T08:45:55.235Z,32.6
2017-10-14T08:46:54.985Z,32.5
2017-10-14T08:47:55.324Z,32.5
2017-10-14T08:48:55.635Z,32.5
2017-10-14T08:49:55.445Z,32.5
2017-10-14T08:50:55.349Z,32.5
2017-10-14T08:51:55.310Z,32.4
2017-10-14T08:52:55.548Z,32.4
2017-10-14T08:53:55.423Z,32.4
2017-10-14T08:54:55.801Z,32.4
2017-10-14T08:55:55.707Z,32.4
2017-10-14T08:56:55.768Z,32.4
2017-10-14T08:57:55.583Z,32.3
2017-10-14T08:58:55.766Z,32.3
2017-10-14T08:59:55.616Z,32.3
2017-10-14T09:00:55.966Z,32.3
2017-10-14T09:01:55.872Z,32.3
2017-10-14T09:02:55.959Z,32.3
2017-10-14T09:03:56.009Z,32.3
2017-10-14T09:04:55.895Z,32.3
2017-10-14T09:05:56.065Z,32.3
2017-10-14T09:06:56.158Z,32.3
2017-10-14T09:07:56.223Z,32.3
2017-10-14T09:08:56.287Z,32.3
2017-10-14T09:09:56.112Z,32.2
2017-10-14T09:10:56.162Z,32.2
2017-10-14T09:11:56.159Z,32.2
2017-10-14T09:12:56.719Z,32.2
2017-10-14T09:13:56.474Z,32.2
2017-10-14T09:14:56.456Z,32.2
2017-10-14T09:15:56.466Z,32.2
2017-10-14T09:16:56.559Z,32.2
2017-10-14T09:17:56.449Z,32.2
2017-10-14T09:18:57.001Z,32.2
2017-10-14T09:19:56.791Z,32.2
2017-10-14T09:20:56.767Z,32.2
2017-10-14T09:21:56.859Z,32.2
2017-10-14T09:22:56.694Z,32.2
2017-10-14T09:23:56.975Z,32.2
2017-10-14T09:24:57.270Z,32.2
2017-10-14T09:25:56.906Z,32.1
2017-10-14T09:26:57.167Z,32.2
2017-10-14T09:27:57.244Z,32.2
2017-10-14T09:28:57.285Z,32.2
2017-10-14T09:29:57.187Z,32.2
2017-10-14T09:30:57.525Z,32.2
2017-10-14T09:31:57.156Z,32.2
2017-10-14T09:32:57.187Z,32.1
2017-10-14T09:33:57.417Z,32.1
2017-10-14T09:34:57.453Z,32.1
2017-10-14T09:35:57.484Z,32.1
2017-10-14T09:36:57.595Z,32.1
2017-10-14T09:37:57.390Z,32.1
2017-10-14T09:38:57.668Z,32.1
2017-10-14T09:39:57.758Z,32.1
2017-10-14T09:40:57.595Z,32.1
2017-10-14T09:41:57.665Z,32.1
2017-10-14T09:42:58.167Z,32.1
2017-10-14T09:43:57.692Z,32.1
2017-10-14T09:44:57.931Z,32.1
2017-10-14T09:45:57.950Z,32.1
2017-10-14T09:46:57.850Z,32.1
2017-10-14T09:47:58.010Z,32.1
2017-10-14T09:48:58.188Z,32.1
2017-10-14T09:49:58.154Z,32.1
2017-10-14T09:50:57.996Z,32.1
2017-10-14T09:51:58.244Z,32.1
2017-10-14T09:52:58.384Z,32.1
2017-10-14T09:53:58.394Z,32.1
2017-10-14T09:54:58.522Z,32.1
2017-10-14T09:55:58.494Z,32.1
2017-10-14T09:56:58.319Z,32.1
2017-10-14T09:57:58.392Z,32.1
2017-10-14T09:58:58.634Z,32.1
2017-10-14T09:59:58.705Z,32.1
2017-10-14T10:00:58.779Z,32.1
2017-10-14T10:01:58.695Z,32.1
2017-10-14T10:02:58.512Z,32.1
2017-10-14T10:03:58.595Z,32.1
2017-10-14T10:04:58.856Z,32.1
2017-10-14T10:05:58.739Z,32.1
2017-10-14T10:06:59.109Z,32.1
2017-10-14T10:07:58.881Z,32.1
2017-10-14T10:08:59.190Z,32.1
2017-10-14T10:09:59.021Z,32.1
2017-10-14T10:10:59.261Z,32.1
2017-10-14T10:11:59.149Z,32.1
2017-10-14T10:12:59.491Z,32.1
2017-10-14T10:13:59.416Z,32.1
2017-10-14T10:14:59.514Z,32.1
2017-10-14T10:15:59.569Z,32.1
2017-10-14T10:16:59.568Z,32.1
2017-10-14T10:17:59.444Z,32.1
2017-10-14T10:18:59.955Z,32.1
2017-10-14T10:19:59.539Z,32.1
2017-10-14T10:20:59.605Z,32.1
2017-10-14T10:21:59.922Z,32.1
2017-10-14T10:23:00.048Z,32.1
2017-10-14T10:23:59.824Z,32.1
2017-10-14T10:25:00.335Z,32.1
2017-10-14T10:26:00.048Z,32.1
2017-10-14T10:26:59.990Z,32.1
2017-10-14T10:28:00.046Z,32.1
2017-10-14T10:29:00.037Z,32.1
2017-10-14T10:30:00.115Z,32.1
2017-10-14T10:31:00.652Z,32.1
2017-10-14T10:32:00.195Z,32.1
2017-10-14T10:33:00.314Z,32.1
2017-10-14T10:34:00.518Z,32.1
2017-10-14T10:35:00.622Z,32.1
2017-10-14T10:36:00.674Z,32.1
2017-10-14T10:37:00.798Z,32.1
2017-10-14T10:38:00.569Z,32.1
2017-10-14T10:39:00.524Z,32.1
2017-10-14T10:40:00.639Z,32.1
2017-10-14T10:41:00.661Z,32.1
2017-10-14T10:42:00.687Z,32.1
2017-10-14T10:43:01.250Z,32.1
2017-10-14T10:44:00.812Z,32.1
2017-10-14T10:45:01.089Z,32.1
2017-10-14T10:46:01.173Z,32.1
2017-10-14T10:47:01.183Z,32.1
2017-10-14T10:48:00.975Z,32.1
2017-10-14T10:49:01.583Z,32.1
2017-10-14T10:50:01.054Z,32.1
2017-10-14T10:51:01.321Z,32.1
2017-10-14T10:52:01.295Z,32.1
2017-10-14T10:53:01.126Z,32.1
2017-10-14T10:54:01.245Z,32.1
2017-10-14T10:55:01.766Z,32.1
2017-10-14T10:56:01.314Z,32.1
2017-10-14T10:57:01.332Z,32.1
2017-10-14T10:58:01.520Z,32.1
2017-10-14T10:59:01.368Z,32.1
2017-10-14T11:00:01.425Z,32.1
2017-10-14T11:01:01.772Z,32.1
2017-10-14T11:02:01.485Z,32.1
2017-10-14T11:03:01.663Z,32.2
2017-10-14T11:04:01.535Z,32.2
2017-10-14T11:05:01.768Z,32.1
2017-10-14T11:06:01.901Z,32.2
2017-10-14T11:07:02.122Z,32.2
2017-10-14T11:08:01.701Z,32.1
2017-10-14T11:09:02.000Z,32.1
2017-10-14T11:10:01.793Z,32.1
2017-10-14T11:11:02.059Z,32.1
2017-10-14T11:12:02.170Z,32.1
2017-10-14T11:13:02.478Z,32.1
2017-10-14T11:14:02.310Z,32.1
2017-10-14T11:15:02.079Z,32.1
2017-10-14T11:16:02.075Z,32.1
2017-10-14T11:17:02.121Z,32.2
2017-10-14T11:18:02.380Z,32.1
2017-10-14T11:19:02.497Z,32.1
2017-10-14T11:20:02.339Z,32.1
2017-10-14T11:21:02.422Z,32.1
2017-10-14T11:22:02.616Z,32.1
2017-10-14T11:23:02.526Z,32.1
2017-10-14T11:24:02.482Z,32.1
2017-10-14T11:25:02.826Z,32.1
2017-10-14T11:26:02.573Z,32.1
2017-10-14T11:27:02.805Z,32.1
2017-10-14T11:28:02.850Z,32.1
2017-10-14T11:29:02.723Z,32.1
2017-10-14T11:30:02.920Z,32.1
2017-10-14T11:31:03.048Z,32.1
2017-10-14T11:32:03.043Z,32.1
2017-10-14T11:33:02.881Z,32.1
2017-10-14T11:34:02.922Z,32.1
2017-10-14T11:35:03.276Z,32.1
2017-10-14T11:36:03.297Z,32.1
2017-10-14T11:37:03.388Z,32.1
2017-10-14T11:38:03.139Z,32.1
2017-10-14T11:39:03.208Z,32.1
2017-10-14T11:40:03.410Z,32.1
2017-10-14T11:41:03.484Z,32.1
2017-10-14T11:42:03.555Z,32.1
2017-10-14T11:43:03.748Z,32.1
2017-10-14T11:44:03.435Z,32.1
2017-10-14T11:45:03.773Z,32.1
2017-10-14T11:46:03.620Z,32.1
2017-10-14T11:47:03.708Z,32.1
2017-10-14T11:48:04.091Z,32.1
2017-10-14T11:49:04.312Z,32.1
2017-10-14T11:50:03.854Z,32.1
2017-10-14T11:51:04.121Z,32.1
2017-10-14T11:52:03.999Z,32.1
2017-10-14T11:53:04.275Z,32.1
2017-10-14T11:54:04.118Z,32.1
2017-10-14T11:55:04.578Z,32.1
2017-10-14T11:56:04.254Z,32.1
2017-10-14T11:57:04.416Z,32.1
2017-10-14T11:58:04.322Z,32.1
2017-10-14T11:59:04.362Z,32.1
2017-10-14T12:00:04.610Z,32.1
2017-10-14T12:01:04.619Z,32.1
2017-10-14T12:02:04.419Z,32.1
2017-10-14T12:03:04.427Z,32.1
2017-10-14T12:04:04.508Z,32.1
2017-10-14T12:05:04.574Z,32.1
2017-10-14T12:06:04.648Z,32.1
2017-10-14T12:07:04.870Z,32.1
2017-10-14T12:08:04.869Z,32.1
2017-10-14T12:09:04.721Z,32.1
2017-10-14T12:10:04.845Z,32.1
2017-10-14T12:11:04.916Z,32.1
2017-10-14T12:12:05.391Z,32.1
2017-10-14T12:13:05.121Z,32.2
2017-10-14T12:14:04.948Z,32.2
2017-10-14T12:15:05.056Z,32.2
2017-10-14T12:16:05.448Z,32.2
2017-10-14T12:17:05.246Z,32.2
2017-10-14T12:18:05.773Z,32.2
2017-10-14T12:19:05.422Z,32.2
2017-10-14T12:20:05.507Z,32.1
2017-10-14T12:21:05.487Z,32.2
2017-10-14T12:22:05.734Z,32.2
2017-10-14T12:23:05.719Z,32.2
2017-10-14T12:24:05.821Z,32.1
2017-10-14T12:25:05.846Z,32.2
2017-10-14T12:26:05.906Z,32.2
2017-10-14T12:27:05.771Z,32.1
2017-10-14T12:28:06.018Z,32.2
2017-10-14T12:29:06.118Z,32.1
2017-10-14T12:30:06.317Z,32.1
2017-10-14T12:31:06.199Z,32.2
2017-10-14T12:32:05.975Z,32.2
2017-10-14T12:33:06.254Z,32.2
2017-10-14T12:34:06.313Z,32.2
2017-10-14T12:35:06.149Z,32.2
2017-10-14T12:36:06.557Z,32.2
2017-10-14T12:37:06.337Z,32.2
2017-10-14T12:38:06.408Z,32.2
2017-10-14T12:39:06.710Z,32.1
2017-10-14T12:40:06.780Z,32.2
2017-10-14T12:41:06.637Z,32.2
2017-10-14T12:42:06.971Z,32.2
2017-10-14T12:43:06.862Z,32.2
2017-10-14T12:44:06.704Z,32.2
2017-10-14T12:45:06.982Z,32.2
2017-10-14T12:46:07.158Z,32.2
2017-10-14T12:47:07.465Z,32.2
2017-10-14T12:48:07.254Z,32.2
2017-10-14T12:49:07.132Z,32.2
2017-10-14T12:50:07.341Z,32.2
2017-10-14T12:51:07.390Z,32.2
2017-10-14T12:52:07.438Z,32.2
2017-10-14T12:53:07.579Z,32.2
2017-10-14T12:54:07.597Z,32.2
2017-10-14T12:55:07.680Z,32.2
2017-10-14T12:56:07.462Z,32.2
2017-10-14T12:57:07.489Z,32.2
2017-10-14T12:58:07.548Z,32.2
2017-10-14T12:59:07.898Z,32.2
2017-10-14T13:00:07.828Z,32.2
2017-10-14T13:01:07.919Z,32.2
2017-10-14T13:02:07.917Z,32.2
2017-10-14T13:03:07.972Z,32.2
2017-10-14T13:04:07.839Z,32.2
2017-10-14T13:05:08.305Z,32.2
2017-10-14T13:06:07.960Z,32.2
2017-10-14T13:07:08.040Z,32.2
2017-10-14T13:08:08.022Z,32.2
2017-10-14T13:09:08.133Z,32.2
2017-10-14T13:10:08.232Z,32.2
2017-10-14T13:11:08.515Z,32.2
2017-10-14T13:12:08.162Z,32.2
2017-10-14T13:13:08.439Z,32.2
2017-10-14T13:14:08.479Z,32.2
2017-10-14T13:15:08.509Z,32.2
2017-10-14T13:16:08.553Z,32.2
2017-10-14T13:17:08.909Z,32.2
2017-10-14T13:18:08.468Z,32.2
2017-10-14T13:19:08.535Z,32.2
2017-10-14T13:20:08.621Z,32.2
2017-10-14T13:21:08.724Z,32.2